Almirante Berria — EA4240 — position and weather

sailwx.info

Track history (hours):
 
Tides and Currents Weather Stations Pressure Air Temp Water Temp Dewpoint Dewpoint Depression Visibility Wind Speed Wind Dir Waves Ship Positions

Almirante Berria

Last reported at 2017-Sep-26 09:00 UTC. Time now 2017-Sep-26 09:29 UTC.
Position N 43°23' W 001°55'.

Length 26 m.

Type: Fishing. MMSI: 224096770.

Date/timePositionNaut miles runAvg speedWind from/ knotsBaromVisibWave heightAir tempDewpointWater temp
2017-Sep-26 09:00N 43°23' W 001°55'1 0.1
2017-Sep-26 02:54N 43°23' W 001°56'4 9.0
2017-Sep-26 02:30N 43°24' W 001°51'1 1.7
2017-Sep-26 02:00N 43°24' W 001°50'0 0.2
2017-Sep-26 01:30N 43°24' W 001°50'0 0.0
2017-Sep-26 01:00N 43°24' W 001°50'0 0.2
2017-Sep-26 00:30N 43°24' W 001°50'0 0.2
2017-Sep-26 00:00N 43°24' W 001°49'0 0.0
2017-Sep-25 23:30N 43°24' W 001°49'0 0.0
2017-Sep-25 23:00N 43°24' W 001°49'0 0.0
2017-Sep-25 22:30N 43°24' W 001°49'0 0.1
2017-Sep-25 22:00N 43°24' W 001°49'0 0.0
2017-Sep-25 21:30N 43°24' W 001°49'0 0.0
2017-Sep-25 21:00N 43°24' W 001°49'0 0.0
2017-Sep-25 20:30N 43°24' W 001°49'0 0.1
2017-Sep-25 20:00N 43°24' W 001°49'0 0.2
2017-Sep-25 19:30N 43°24' W 001°49'0 0.1
2017-Sep-25 19:00N 43°24' W 001°49'0 0.2
2017-Sep-25 18:30N 43°24' W 001°50'2 3.1
2017-Sep-25 18:00N 43°23' W 001°48'0 0.0
2017-Sep-25 10:32N 43°23' W 001°48'0 0.0
2017-Sep-25 10:30N 43°23' W 001°48'0 0.0
2017-Sep-25 10:00N 43°23' W 001°48'0 0.0
2017-Sep-25 09:30N 43°23' W 001°48'0 0.0
2017-Sep-25 09:00N 43°23' W 001°48'0 0.0
2017-Sep-25 01:38N 43°23' W 001°48'0 0.0
2017-Sep-25 01:30N 43°23' W 001°48'2 3.5
2017-Sep-25 01:00N 43°24' W 001°50'4 7.5
2017-Sep-25 00:30N 43°22' W 001°54'2 4.7
2017-Sep-25 00:00N 43°23' W 001°51'0 0.9
2017-Sep-24 23:30N 43°23' W 001°51'0 0.2
2017-Sep-24 23:00N 43°23' W 001°51'0 0.2
2017-Sep-24 22:30N 43°23' W 001°51'0 0.0
2017-Sep-24 22:00N 43°23' W 001°51'0 0.2
2017-Sep-24 21:30N 43°23' W 001°51'0 0.1
2017-Sep-24 21:00N 43°23' W 001°51'0 0.1
2017-Sep-24 20:30N 43°23' W 001°51'0 0.0
2017-Sep-24 20:00N 43°23' W 001°51'0 0.0
2017-Sep-24 19:29N 43°23' W 001°51'0 0.1
2017-Sep-24 19:00N 43°23' W 001°51'3 6.9
2017-Sep-24 18:30N 43°24' W 001°47'1 1.7
2017-Sep-24 18:00N 43°23' W 001°47'0 0.3
2017-Sep-24 17:30N 43°23' W 001°47'  
2017-Sep-21 20:24N 43°24' W 001°56'2 6.2
2017-Sep-21 20:00N 43°25' W 001°52'3 6.2
2017-Sep-21 19:30N 43°25' W 001°48'2 3.2
2017-Sep-21 19:00N 43°23' W 001°47'0 0.0
2017-Sep-21 18:30N 43°23' W 001°47'0 0.0
2017-Sep-21 18:00N 43°23' W 001°47'0 0.0
2017-Sep-21 17:30N 43°23' W 001°47'0 0.0
2017-Sep-21 17:00N 43°23' W 001°47'0 0.0
2017-Sep-21 16:30N 43°23' W 001°47'0 0.0
2017-Sep-21 16:00N 43°23' W 001°47'0 0.0
2017-Sep-21 15:30N 43°23' W 001°47'0 0.0
2017-Sep-21 08:44N 43°23' W 001°47'0 0.0
2017-Sep-21 08:30N 43°23' W 001°47'0 0.0
2017-Sep-21 08:01N 43°23' W 001°47'0 0.0
2017-Sep-21 07:31N 43°23' W 001°47'0 0.0
2017-Sep-21 07:00N 43°23' W 001°47'0 0.0
2017-Sep-21 06:30N 43°23' W 001°47'0 0.0
2017-Sep-21 06:00N 43°23' W 001°47'0 0.0
2017-Sep-21 05:31N 43°23' W 001°47'0 0.0
2017-Sep-21 05:01N 43°23' W 001°47'0 0.0
2017-Sep-21 04:30N 43°23' W 001°47'0 0.2
2017-Sep-21 04:01N 43°23' W 001°48'0 0.0
2017-Sep-21 03:31N 43°23' W 001°48'1 1.3
2017-Sep-21 03:00N 43°24' W 001°47'4 7.1
2017-Sep-21 02:31N 43°23' W 001°52'0 0.3
2017-Sep-21 02:00N 43°23' W 001°52'0 0.0
2017-Sep-21 01:31N 43°23' W 001°52'0 0.0
2017-Sep-21 01:01N 43°23' W 001°52'0 0.0
2017-Sep-21 00:31N 43°23' W 001°52'0 0.0
2017-Sep-21 00:01N 43°23' W 001°52'0 0.0
2017-Sep-20 23:31N 43°23' W 001°52'0 0.0
2017-Sep-20 23:01N 43°23' W 001°52'0 0.0
2017-Sep-20 22:30N 43°23' W 001°52'0 0.0
2017-Sep-20 22:01N 43°23' W 001°52'0 0.0
2017-Sep-20 21:30N 43°23' W 001°52'0 0.1
2017-Sep-20 21:00N 43°23' W 001°52'0 0.0
2017-Sep-20 20:31N 43°23' W 001°52'0 0.0
2017-Sep-20 20:01N 43°23' W 001°52'0 0.0
2017-Sep-20 19:31N 43°23' W 001°52'0 0.0
2017-Sep-20 19:01N 43°23' W 001°52'1 1.6
2017-Sep-20 18:30N 43°23' W 001°51'3 5.3
2017-Sep-20 18:01N 43°23' W 001°47'0 0.1
2017-Sep-20 17:30N 43°23' W 001°47'0 0.0
2017-Sep-20 08:35N 43°23' W 001°47'0 0.0
2017-Sep-20 08:30N 43°23' W 001°47'1 2.7
2017-Sep-20 08:00N 43°24' W 001°49'5 8.9
2017-Sep-20 07:28N 43°21' W 001°55'0 0.2
2017-Sep-20 04:39N 43°21' W 001°55'2 9.1
2017-Sep-20 04:29N 43°22' W 001°54'3 7.1
2017-Sep-20 04:00N 43°24' W 001°50'0 0.2
2017-Sep-20 03:30N 43°24' W 001°50'0 0.1
2017-Sep-20 03:00N 43°24' W 001°50'0 0.1
2017-Sep-20 02:30N 43°24' W 001°50'0 0.2
2017-Sep-20 02:00N 43°24' W 001°50'0 0.0
2017-Sep-20 01:30N 43°24' W 001°50'0 0.0
2017-Sep-20 01:00N 43°24' W 001°50'0 0.0
2017-Sep-20 00:30N 43°24' W 001°50'0 0.1
2017-Sep-20 00:00N 43°23' W 001°50'0 0.5
2017-Sep-19 23:30N 43°24' W 001°50'0 0.2
2017-Sep-19 23:00N 43°24' W 001°50'0 0.2
2017-Sep-19 22:30N 43°24' W 001°50'0 0.3
2017-Sep-19 22:00N 43°24' W 001°50'0 0.1
2017-Sep-19 21:30N 43°24' W 001°50'0 0.1
2017-Sep-19 21:00N 43°24' W 001°50'0 0.0
2017-Sep-19 20:30N 43°24' W 001°50'0 0.0
2017-Sep-19 20:00N 43°24' W 001°50'0 0.0
2017-Sep-19 19:30N 43°24' W 001°50'0 0.0
2017-Sep-19 19:00N 43°24' W 001°50'0 0.1
2017-Sep-19 18:30N 43°24' W 001°50'2 4.3
2017-Sep-19 18:00N 43°24' W 001°47'1 2.3
2017-Sep-19 17:30N 43°23' W 001°47'0 0.2
2017-Sep-19 17:01N 43°23' W 001°48'0 0.0
2017-Sep-19 16:30N 43°23' W 001°48'0 0.0
2017-Sep-19 16:01N 43°23' W 001°48'0 0.0
2017-Sep-19 11:47N 43°23' W 001°48'0 0.0
2017-Sep-19 11:31N 43°23' W 001°48'0 0.0
2017-Sep-19 11:01N 43°23' W 001°48'0 0.0
2017-Sep-19 10:31N 43°23' W 001°48'0 0.0
2017-Sep-19 10:00N 43°23' W 001°48'0 0.0
2017-Sep-19 09:30N 43°23' W 001°48'0 0.0
2017-Sep-19 09:00N 43°23' W 001°48'0 0.0
2017-Sep-19 08:30N 43°23' W 001°48'0 0.0
2017-Sep-19 08:00N 43°23' W 001°48'0 0.0
2017-Sep-19 07:30N 43°23' W 001°48'0 0.0
2017-Sep-19 07:00N 43°23' W 001°48'0 0.0
2017-Sep-19 06:30N 43°23' W 001°48'0 0.0
2017-Sep-18 17:46N 43°23' W 001°48'0 0.0
2017-Sep-18 17:30N 43°23' W 001°48'0 0.0
2017-Sep-18 17:00N 43°23' W 001°48'0 0.0
2017-Sep-18 16:30N 43°23' W 001°48'0 0.0
2017-Sep-18 16:00N 43°23' W 001°48'0 0.0
2017-Sep-18 15:30N 43°23' W 001°48'0 0.0
2017-Sep-18 15:00N 43°23' W 001°48'0 0.0
2017-Sep-18 14:30N 43°23' W 001°48'0 0.0
2017-Sep-18 14:00N 43°23' W 001°48'0 0.0
2017-Sep-18 13:30N 43°23' W 001°48'0 0.0
2017-Sep-18 13:00N 43°23' W 001°48'0 0.0
2017-Sep-18 12:30N 43°23' W 001°48'0 0.0
2017-Sep-18 12:00N 43°23' W 001°48'0 0.0
2017-Sep-18 11:30N 43°23' W 001°48'0 0.0
2017-Sep-18 11:00N 43°23' W 001°48'0 0.0
2017-Sep-18 10:30N 43°23' W 001°48'0 0.0
2017-Sep-18 10:00N 43°23' W 001°48'0 0.0
2017-Sep-18 09:30N 43°23' W 001°48'0 0.0
2017-Sep-18 09:00N 43°23' W 001°48'0 0.0
2017-Sep-18 08:30N 43°23' W 001°48'0 0.0
2017-Sep-18 08:00N 43°23' W 001°48'0 0.0
2017-Sep-18 07:30N 43°23' W 001°48'0 0.0
2017-Sep-18 07:00N 43°23' W 001°48'  
Track history (hours):
 
Tides and Currents Weather Stations Pressure Air Temp Water Temp Dewpoint Dewpoint Depression Visibility Wind Speed Wind Dir Waves Ship Positions

Almirante Berria

Last reported at 2017-Sep-26 09:00 UTC. Time now 2017-Sep-26 09:29 UTC.
Position N 43°23' W 001°55'.

Length 26 m.

Type: Fishing. MMSI: 224096770.

Date/timePositionNaut miles runAvg speedWind from/ knotsBaromVisibWave heightAir tempDewpointWater temp
2017-Sep-26 09:00N 43°23' W 001°55'1 0.1
2017-Sep-26 02:54N 43°23' W 001°56'4 9.0
2017-Sep-26 02:30N 43°24' W 001°51'1 1.7
2017-Sep-26 02:00N 43°24' W 001°50'0 0.2
2017-Sep-26 01:30N 43°24' W 001°50'0 0.0
2017-Sep-26 01:00N 43°24' W 001°50'0 0.2
2017-Sep-26 00:30N 43°24' W 001°50'0 0.2
2017-Sep-26 00:00N 43°24' W 001°49'0 0.0
2017-Sep-25 23:30N 43°24' W 001°49'0 0.0
2017-Sep-25 23:00N 43°24' W 001°49'0 0.0
2017-Sep-25 22:30N 43°24' W 001°49'0 0.1
2017-Sep-25 22:00N 43°24' W 001°49'0 0.0
2017-Sep-25 21:30N 43°24' W 001°49'0 0.0
2017-Sep-25 21:00N 43°24' W 001°49'0 0.0
2017-Sep-25 20:30N 43°24' W 001°49'0 0.1
2017-Sep-25 20:00N 43°24' W 001°49'0 0.2
2017-Sep-25 19:30N 43°24' W 001°49'0 0.1
2017-Sep-25 19:00N 43°24' W 001°49'0 0.2
2017-Sep-25 18:30N 43°24' W 001°50'2 3.1
2017-Sep-25 18:00N 43°23' W 001°48'0 0.0
2017-Sep-25 10:32N 43°23' W 001°48'0 0.0
2017-Sep-25 10:30N 43°23' W 001°48'0 0.0
2017-Sep-25 10:00N 43°23' W 001°48'0 0.0
2017-Sep-25 09:30N 43°23' W 001°48'0 0.0
2017-Sep-25 09:00N 43°23' W 001°48'0 0.0
2017-Sep-25 01:38N 43°23' W 001°48'0 0.0
2017-Sep-25 01:30N 43°23' W 001°48'2 3.5
2017-Sep-25 01:00N 43°24' W 001°50'4 7.5
2017-Sep-25 00:30N 43°22' W 001°54'2 4.7
2017-Sep-25 00:00N 43°23' W 001°51'0 0.9
2017-Sep-24 23:30N 43°23' W 001°51'0 0.2
2017-Sep-24 23:00N 43°23' W 001°51'0 0.2
2017-Sep-24 22:30N 43°23' W 001°51'0 0.0
2017-Sep-24 22:00N 43°23' W 001°51'0 0.2
2017-Sep-24 21:30N 43°23' W 001°51'0 0.1
2017-Sep-24 21:00N 43°23' W 001°51'0 0.1
2017-Sep-24 20:30N 43°23' W 001°51'0 0.0
2017-Sep-24 20:00N 43°23' W 001°51'0 0.0
2017-Sep-24 19:29N 43°23' W 001°51'0 0.1
2017-Sep-24 19:00N 43°23' W 001°51'3 6.9
2017-Sep-24 18:30N 43°24' W 001°47'1 1.7
2017-Sep-24 18:00N 43°23' W 001°47'0 0.3
2017-Sep-24 17:30N 43°23' W 001°47'  
2017-Sep-21 20:24N 43°24' W 001°56'2 6.2
2017-Sep-21 20:00N 43°25' W 001°52'3 6.2
2017-Sep-21 19:30N 43°25' W 001°48'2 3.2
2017-Sep-21 19:00N 43°23' W 001°47'0 0.0
2017-Sep-21 18:30N 43°23' W 001°47'0 0.0
2017-Sep-21 18:00N 43°23' W 001°47'0 0.0
2017-Sep-21 17:30N 43°23' W 001°47'0 0.0
2017-Sep-21 17:00N 43°23' W 001°47'0 0.0
2017-Sep-21 16:30N 43°23' W 001°47'0 0.0
2017-Sep-21 16:00N 43°23' W 001°47'0 0.0
2017-Sep-21 15:30N 43°23' W 001°47'0 0.0
2017-Sep-21 08:44N 43°23' W 001°47'0 0.0
2017-Sep-21 08:30N 43°23' W 001°47'0 0.0
2017-Sep-21 08:01N 43°23' W 001°47'0 0.0
2017-Sep-21 07:31N 43°23' W 001°47'0 0.0
2017-Sep-21 07:00N 43°23' W 001°47'0 0.0
2017-Sep-21 06:30N 43°23' W 001°47'0 0.0
2017-Sep-21 06:00N 43°23' W 001°47'0 0.0
2017-Sep-21 05:31N 43°23' W 001°47'0 0.0
2017-Sep-21 05:01N 43°23' W 001°47'0 0.0
2017-Sep-21 04:30N 43°23' W 001°47'0 0.2
2017-Sep-21 04:01N 43°23' W 001°48'0 0.0
2017-Sep-21 03:31N 43°23' W 001°48'1 1.3
2017-Sep-21 03:00N 43°24' W 001°47'4 7.1
2017-Sep-21 02:31N 43°23' W 001°52'0 0.3
2017-Sep-21 02:00N 43°23' W 001°52'0 0.0
2017-Sep-21 01:31N 43°23' W 001°52'0 0.0
2017-Sep-21 01:01N 43°23' W 001°52'0 0.0
2017-Sep-21 00:31N 43°23' W 001°52'0 0.0
2017-Sep-21 00:01N 43°23' W 001°52'0 0.0
2017-Sep-20 23:31N 43°23' W 001°52'0 0.0
2017-Sep-20 23:01N 43°23' W 001°52'0 0.0
2017-Sep-20 22:30N 43°23' W 001°52'0 0.0
2017-Sep-20 22:01N 43°23' W 001°52'0 0.0
2017-Sep-20 21:30N 43°23' W 001°52'0 0.1
2017-Sep-20 21:00N 43°23' W 001°52'0 0.0
2017-Sep-20 20:31N 43°23' W 001°52'0 0.0
2017-Sep-20 20:01N 43°23' W 001°52'0 0.0
2017-Sep-20 19:31N 43°23' W 001°52'0 0.0
2017-Sep-20 19:01N 43°23' W 001°52'1 1.6
2017-Sep-20 18:30N 43°23' W 001°51'3 5.3
2017-Sep-20 18:01N 43°23' W 001°47'0 0.1
2017-Sep-20 17:30N 43°23' W 001°47'0 0.0
2017-Sep-20 08:35N 43°23' W 001°47'0 0.0
2017-Sep-20 08:30N 43°23' W 001°47'1 2.7
2017-Sep-20 08:00N 43°24' W 001°49'5 8.9
2017-Sep-20 07:28N 43°21' W 001°55'0 0.2
2017-Sep-20 04:39N 43°21' W 001°55'2 9.1
2017-Sep-20 04:29N 43°22' W 001°54'3 7.1
2017-Sep-20 04:00N 43°24' W 001°50'0 0.2
2017-Sep-20 03:30N 43°24' W 001°50'0 0.1
2017-Sep-20 03:00N 43°24' W 001°50'0 0.1
2017-Sep-20 02:30N 43°24' W 001°50'0 0.2
2017-Sep-20 02:00N 43°24' W 001°50'0 0.0
2017-Sep-20 01:30N 43°24' W 001°50'0 0.0
2017-Sep-20 01:00N 43°24' W 001°50'0 0.0
2017-Sep-20 00:30N 43°24' W 001°50'0 0.1
2017-Sep-20 00:00N 43°23' W 001°50'0 0.5
2017-Sep-19 23:30N 43°24' W 001°50'0 0.2
2017-Sep-19 23:00N 43°24' W 001°50'0 0.2
2017-Sep-19 22:30N 43°24' W 001°50'0 0.3
2017-Sep-19 22:00N 43°24' W 001°50'0 0.1
2017-Sep-19 21:30N 43°24' W 001°50'0 0.1
2017-Sep-19 21:00N 43°24' W 001°50'0 0.0
2017-Sep-19 20:30N 43°24' W 001°50'0 0.0
2017-Sep-19 20:00N 43°24' W 001°50'0 0.0
2017-Sep-19 19:30N 43°24' W 001°50'0 0.0
2017-Sep-19 19:00N 43°24' W 001°50'0 0.1
2017-Sep-19 18:30N 43°24' W 001°50'2 4.3
2017-Sep-19 18:00N 43°24' W 001°47'1 2.3
2017-Sep-19 17:30N 43°23' W 001°47'0 0.2
2017-Sep-19 17:01N 43°23' W 001°48'0 0.0
2017-Sep-19 16:30N 43°23' W 001°48'0 0.0
2017-Sep-19 16:01N 43°23' W 001°48'0 0.0
2017-Sep-19 11:47N 43°23' W 001°48'0 0.0
2017-Sep-19 11:31N 43°23' W 001°48'0 0.0
2017-Sep-19 11:01N 43°23' W 001°48'0 0.0
2017-Sep-19 10:31N 43°23' W 001°48'0 0.0
2017-Sep-19 10:00N 43°23' W 001°48'0 0.0
2017-Sep-19 09:30N 43°23' W 001°48'0 0.0
2017-Sep-19 09:00N 43°23' W 001°48'0 0.0
2017-Sep-19 08:30N 43°23' W 001°48'0 0.0
2017-Sep-19 08:00N 43°23' W 001°48'0 0.0
2017-Sep-19 07:30N 43°23' W 001°48'0 0.0
2017-Sep-19 07:00N 43°23' W 001°48'0 0.0
2017-Sep-19 06:30N 43°23' W 001°48'0 0.0
2017-Sep-18 17:46N 43°23' W 001°48'0 0.0
2017-Sep-18 17:30N 43°23' W 001°48'0 0.0
2017-Sep-18 17:00N 43°23' W 001°48'0 0.0
2017-Sep-18 16:30N 43°23' W 001°48'0 0.0
2017-Sep-18 16:00N 43°23' W 001°48'0 0.0
2017-Sep-18 15:30N 43°23' W 001°48'0 0.0
2017-Sep-18 15:00N 43°23' W 001°48'0 0.0
2017-Sep-18 14:30N 43°23' W 001°48'0 0.0
2017-Sep-18 14:00N 43°23' W 001°48'0 0.0
2017-Sep-18 13:30N 43°23' W 001°48'0 0.0
2017-Sep-18 13:00N 43°23' W 001°48'0 0.0
2017-Sep-18 12:30N 43°23' W 001°48'0 0.0
2017-Sep-18 12:00N 43°23' W 001°48'0 0.0
2017-Sep-18 11:30N 43°23' W 001°48'0 0.0
2017-Sep-18 11:00N 43°23' W 001°48'0 0.0
2017-Sep-18 10:30N 43°23' W 001°48'0 0.0
2017-Sep-18 10:00N 43°23' W 001°48'0 0.0
2017-Sep-18 09:30N 43°23' W 001°48'0 0.0
2017-Sep-18 09:00N 43°23' W 001°48'0 0.0
2017-Sep-18 08:30N 43°23' W 001°48'0 0.0
2017-Sep-18 08:00N 43°23' W 001°48'0 0.0
2017-Sep-18 07:30N 43°23' W 001°48'0 0.0
2017-Sep-18 07:00N 43°23' W 001°48'  

Dump ship's entire track history